Airfield :
LOGIN :

Register | Disclaimer

   EN    FR    IT 

 










Legend :    VFR   Marginal VFR   IFR   Intensive IFR   Very Intensive IFR
Visi :
Ceiling :
>= 8 km
>= 3000ft
5 to 8 km
1000 to 3000 ft
1500m to 5 km
500 to 1000 ft
800 to 1500m
200 to 500 ft
< 800m
< 200 ft
Symbols :   Thunderstorms  Fog  Heavy snow  Heavy precipitations  Wind > 20 kt
SIGMETs :     Misc.  Thunderstorms  Icing  Turbulence  Mountain Waves  Volcanic Ashes







- Airport Elevation : 7 ft
- IATA code : POW


LJPZ - Portoroz

CURRENT METAR :
  • 220300Z AUTO 04005KT 350V110 5000 +RA FEW017/// BKN042/// BKN049/// 19/18 Q1012

EXPIRED METARs :
  • 220230Z AUTO 00000KT 9999 RA FEW045/// BKN055/// BKN095/// 20/18 Q1012
  • 220200Z AUTO 12005KT 070V150 8000 RA SCT046/// OVC060/// 20/18 Q1011 RERA
  • 220130Z AUTO VRB03KT 7000 SHRA FEW025/// SCT040/// OVC046/// 20/18 Q1012 RESHRA
  • 220100Z AUTO VRB01KT 3300 +RA FEW039/// BKN060/// OVC075/// 21/17 Q1012
  • 220030Z AUTO 12005KT 9999 BKN060/// 21/16 Q1011

TAF TAF LJPZ
Valid from the 22 at 03:00 until the 22 at 12:00 UTC


220200Z 2203/2212 07010G20KT 9999 FEW060 SCT120
TEMPO 2203/2209 VRB10G25KT 5000 TSRA SCT030CB BKN050
TEMPO 2205/2209 04015G35KT
No reported NOTAMs for that airfield.
1 SIGMET reported for the Ljubljana FIR (LJLA) :
 
Embedded thunderstorms
LJLA SIGMET 2 VALID 220200/220400 LJLJ
LJLA LJUBLJANA FIR EMBD TS OBS SW OF LINE N4629 E01331 - N4524 E01444 TOP FL420 MOV ESE 10KT NC=



MET'MAP, your aeronautical weather chart ! - Copyright ORBIFLY December 2007 - Disclaimer

ORBIFLY MET'MAP TEAM :

Programming & Development : Alexandra Zaïnal
Concept & Development : Baudouin d'Aumeries
Co-Development & Prog : Marc-Olivier Méhu
Technical & hardware support : Manuel Goepfert

Contact : metmap@orbifly.com




SOURCES & CREDITS :

   NOAA